Главная страница
METAR-TAF:

METAR-TAF

Аэропорты :

Нуакшот, Мавритания

широта: 18-18-36N, долгота: 015-58-11W, высота над уровнем моря: 3 м

Текущие метеонаблюдения

Эта сводка был подготовлена 40 минут назад, в 13:30 UTC
Ветер 12 Узел от северо-западный
Температура 28°C
Влажность 37%
Давление 1012 hPa
Видимость: 8000 м

METAR: GQNO 221330Z 31012KT 8000 NSC 28/12 Q1012 NOSIG

Время: 14:10 (14:10 UTC)

Прогноз

Эта сводка был подготовлена 3 часа и 10 минут назад, в 11:00 UTC
Прогноз действительный с 22-го 12 UTC до 23-го 18 UTC
Ветер 12 Узел от северно-северо-западный
Видимость: 7000 м
Вероятность 30% :
временами
С 22-го 15 UTC до 22-го 18 UTC
Видимость: 4000 м
Низовая пыльная метель

TAF: GQNO 221100Z 2212/2318 34012KT 7000 NSC PROB30 TEMPO 2215/2218 4000 BLDU

Метеонаблюдения и прогнозы для более 4000 аэропортов (сводки METAR и TAF).

Имеющиеся станции представлены на карте желтыми и красными точками.

Чтобы увидеть название станции, наведите на нее мышь.

Затем щелкните, чтобы увидеть метеонаблюдения и метеопрогнозы.

Управление картой: чтобы увеличить масштаб, щелкните зеленые кнопки с черным крестиком; чтобы уменьшить масштаб, щелкните зеленую кнопку с тире; для просмотра соседних карт щелкайте зеленые стрелки.


METAR-TAF: